Time;durP1;ratioP1;P1;durP2;ratioP2;P2;SDS_P1;SDS_P2;PMS_P1;PMS_P2;Temp;Humidity;BMP_temperature;BMP_pressure;BME280_temperature;BME280_humidity;BME280_pressure;Samples;Min_cycle;Max_cycle;Signal;HPM_P1;HPM_P2
2022/09/19 00:02:17;;;;;;;16.70;2.42;;;12.50;99.90;;;;;;5030723;28;20069;-75
2022/09/19 00:04:43;;;;;;;13.15;2.05;;;12.60;99.90;;;;;;5023058;28;20481;-76
2022/09/19 00:07:09;;;;;;;13.18;1.98;;;12.60;99.90;;;;;;5017959;28;20021;-76
2022/09/19 00:09:34;;;;;;;23.15;2.42;;;12.60;99.90;;;;;;5040506;28;20032;-75
2022/09/19 00:12:01;;;;;;;19.38;2.90;;;12.60;99.90;;;;;;5040466;28;20026;-76
2022/09/19 00:14:29;;;;;;;19.17;2.67;;;12.60;99.90;;;;;;5024314;28;20018;-75
2022/09/19 00:17:07;;;;;;;21.17;2.97;;;12.60;99.90;;;;;;5044936;28;20045;-76
2022/09/19 00:19:33;;;;;;;15.52;1.95;;;12.60;99.90;;;;;;5033674;28;20033;-75
2022/09/19 00:22:01;;;;;;;23.17;2.35;;;12.60;99.90;;;;;;5038444;28;20432;-75
2022/09/19 00:24:45;;;;;;;23.20;2.80;;;12.60;99.90;;;;;;5040218;28;20385;-75
2022/09/19 00:27:12;;;;;;;27.48;2.83;;;12.60;99.90;;;;;;5036932;28;20484;-75
2022/09/19 00:29:41;;;;;;;20.33;2.67;;;12.50;99.90;;;;;;5037343;28;20113;-75
2022/09/19 00:32:11;;;;;;;19.13;2.15;;;12.50;99.90;;;;;;5038694;28;20472;-75
2022/09/19 00:34:39;;;;;;;15.63;1.95;;;12.50;99.90;;;;;;5036760;28;20040;-75
2022/09/19 00:37:05;;;;;;;19.05;2.53;;;12.40;99.90;;;;;;5036260;28;20516;-75
2022/09/19 00:39:31;;;;;;;19.08;2.53;;;12.40;99.90;;;;;;5031656;28;20464;-76
2022/09/19 00:41:57;;;;;;;19.73;2.75;;;12.30;99.90;;;;;;5030253;28;20032;-75
2022/09/19 00:44:23;;;;;;;19.63;2.50;;;12.20;99.90;;;;;;5040398;28;20032;-75
2022/09/19 00:47:14;;;;;;;15.85;2.03;;;12.20;99.90;;;;;;5034570;28;20022;-75
2022/09/19 00:49:45;;;;;;;13.65;2.15;;;12.10;99.90;;;;;;5033540;28;20025;-75
2022/09/19 00:52:16;;;;;;;13.38;2.08;;;12.10;99.90;;;;;;5030622;28;20112;-75
2022/09/19 00:54:44;;;;;;;14.48;2.17;;;12.00;99.90;;;;;;5025699;28;20074;-76
2022/09/19 00:57:14;;;;;;;14.00;2.00;;;12.00;99.90;;;;;;5044599;28;20377;-75
2022/09/19 00:59:43;;;;;;;17.80;2.20;;;12.00;99.90;;;;;;5033011;28;20485;-75
2022/09/19 01:02:09;;;;;;;12.85;2.15;;;12.00;99.90;;;;;;5035391;28;20025;-75
2022/09/19 01:04:35;;;;;;;19.48;2.28;;;12.00;99.90;;;;;;5043362;28;20064;-75
2022/09/19 01:07:28;;;;;;;17.42;2.05;;;12.00;99.90;;;;;;5044056;28;20056;-74
2022/09/19 01:10:23;;;;;;;13.30;2.15;;;12.00;99.90;;;;;;5020698;28;20446;-75
2022/09/19 01:13:09;;;;;;;17.55;2.17;;;12.10;99.90;;;;;;5032393;28;20069;-75
2022/09/19 01:15:57;;;;;;;;;;;12.10;99.90;;;;;;5037243;28;20155;-75
2022/09/19 01:18:50;;;;;;;16.73;2.00;;;12.00;99.90;;;;;;5020731;28;20424;-75
2022/09/19 01:21:38;;;;;;;13.50;2.40;;;12.00;99.90;;;;;;5037639;28;20041;-75
2022/09/19 01:24:19;;;;;;;11.40;1.95;;;12.00;99.90;;;;;;5033098;28;20026;-75
2022/09/19 01:26:58;;;;;;;12.23;1.90;;;12.00;99.90;;;;;;5028682;28;20041;-75
2022/09/19 01:29:42;;;;;;;16.70;2.20;;;12.00;99.90;;;;;;5032910;28;20026;-75
2022/09/19 01:32:14;;;;;;;11.93;1.75;;;12.00;99.90;;;;;;5029704;28;20033;-75
2022/09/19 01:34:46;;;;;;;18.40;2.38;;;11.90;99.90;;;;;;5040241;28;20022;-75
2022/09/19 01:37:28;;;;;;;17.75;2.45;;;11.90;99.90;;;;;;5030115;28;20116;-75
2022/09/19 01:39:57;;;;;;;20.48;2.10;;;11.90;99.90;;;;;;5031892;28;20617;-75
2022/09/19 01:42:23;;;;;;;16.02;2.42;;;12.00;99.90;;;;;;5031070;28;20029;-75
2022/09/19 01:44:50;;;;;;;14.45;2.40;;;12.00;99.90;;;;;;5034267;28;20033;-75
2022/09/19 01:47:58;;;;;;;15.95;1.73;;;12.00;99.90;;;;;;5031191;28;20017;-75
2022/09/19 01:51:10;;;;;;;11.48;1.70;;;12.00;99.90;;;;;;5002516;28;20053;-75
2022/09/19 01:53:41;;;;;;;12.57;1.73;;;12.00;99.90;;;;;;4944001;29;20508;-75
2022/09/19 01:56:09;;;;;;;19.80;2.55;;;12.00;99.90;;;;;;4947714;28;20047;-75
2022/09/19 01:58:47;;;;;;;15.15;1.85;;;12.00;99.90;;;;;;4938032;29;20507;-75
2022/09/19 02:01:34;;;;;;;13.60;1.83;;;12.00;99.90;;;;;;4949630;28;20126;-75
2022/09/19 02:04:14;;;;;;;12.55;1.92;;;12.00;99.90;;;;;;4940200;28;20039;-75
2022/09/19 02:06:47;;;;;;;10.57;1.48;;;11.90;99.90;;;;;;4949448;28;20062;-75
2022/09/19 02:09:52;;;;;;;13.18;1.85;;;11.90;99.90;;;;;;4950084;29;20039;-75
2022/09/19 02:12:20;;;;;;;9.63;1.50;;;11.90;99.90;;;;;;4947286;29;20585;-75
2022/09/19 02:14:54;;;;;;;10.05;1.60;;;11.90;99.90;;;;;;4949893;29;20031;-75
2022/09/19 02:17:24;;;;;;;15.65;1.80;;;11.90;99.90;;;;;;4934232;29;20036;-75
2022/09/19 02:19:59;;;;;;;13.73;1.85;;;11.90;99.90;;;;;;4931945;29;20052;-74
2022/09/19 02:22:31;;;;;;;10.55;1.58;;;11.90;99.90;;;;;;4948565;29;20554;-75
2022/09/19 02:25:02;;;;;;;11.82;1.40;;;11.90;99.90;;;;;;4949612;28;20543;-75
2022/09/19 02:27:37;;;;;;;10.00;1.65;;;11.80;99.90;;;;;;4963672;28;20037;-75
2022/09/19 02:30:08;;;;;;;12.73;1.77;;;11.80;99.90;;;;;;5015597;28;20037;-75
2022/09/19 02:32:35;;;;;;;12.18;1.67;;;11.70;99.90;;;;;;5030599;28;20028;-75
2022/09/19 02:35:03;;;;;;;9.75;1.80;;;11.70;99.90;;;;;;5031843;28;20313;-75
2022/09/19 02:37:32;;;;;;;12.80;1.65;;;11.60;99.90;;;;;;5033336;28;20055;-75
2022/09/19 02:40:04;;;;;;;15.48;2.10;;;11.60;99.90;;;;;;5030103;28;20032;-75
2022/09/19 02:42:46;;;;;;;12.40;1.65;;;11.60;99.90;;;;;;5032893;28;20333;-75
2022/09/19 02:45:21;;;;;;;12.73;1.95;;;11.50;99.90;;;;;;5031124;28;20117;-75
2022/09/19 02:48:03;;;;;;;12.55;1.60;;;11.50;99.90;;;;;;5030109;28;20029;-75
2022/09/19 02:51:00;;;;;;;9.35;1.35;;;11.50;99.90;;;;;;5031272;28;20041;-74
2022/09/19 02:53:32;;;;;;;12.13;1.63;;;11.40;99.90;;;;;;5018288;28;20084;-76
2022/09/19 02:56:02;;;;;;;8.55;1.90;;;11.30;99.90;;;;;;5032302;28;20049;-75
2022/09/19 02:58:38;;;;;;;11.75;1.70;;;11.30;99.90;;;;;;5029722;28;20045;-75
2022/09/19 03:01:08;;;;;;;11.98;1.92;;;11.30;99.90;;;;;;5030084;28;20022;-75
2022/09/19 03:06:33;;;;;;;;;;;11.20;99.90;;;;;;5032480;28;20048;-75
2022/09/19 03:09:01;;;;;;;13.07;1.83;;;11.20;99.90;;;;;;5030436;28;20358;-75
2022/09/19 03:11:30;;;;;;;15.60;2.05;;;11.20;99.90;;;;;;5041870;28;20040;-75
2022/09/19 03:13:58;;;;;;;15.25;1.67;;;11.20;99.90;;;;;;5032134;28;20032;-75
2022/09/19 03:16:31;;;;;;;12.20;1.98;;;11.20;99.90;;;;;;5037769;28;20026;-75
2022/09/19 03:18:57;;;;;;;10.60;1.70;;;11.20;99.90;;;;;;5016963;28;20081;-75
2022/09/19 03:21:26;;;;;;;16.08;1.70;;;11.20;99.90;;;;;;5034843;28;20029;-75
2022/09/19 03:23:58;;;;;;;10.05;1.77;;;11.10;99.90;;;;;;5030518;28;20176;-75
2022/09/19 03:26:30;;;;;;;13.93;1.52;;;11.10;99.90;;;;;;5036897;28;20045;-75
2022/09/19 03:28:57;;;;;;;15.65;1.90;;;11.10;99.90;;;;;;5029933;28;20028;-75
2022/09/19 03:31:26;;;;;;;15.27;1.77;;;11.10;99.90;;;;;;5030217;28;20115;-75
2022/09/19 03:33:52;;;;;;;11.10;1.58;;;11.00;99.90;;;;;;5028650;28;20067;-75
2022/09/19 03:36:18;;;;;;;12.80;1.80;;;11.00;99.90;;;;;;5030189;28;20022;-75
2022/09/19 03:38:44;;;;;;;10.68;1.40;;;11.00;99.90;;;;;;5027793;28;20106;-75
2022/09/19 03:41:14;;;;;;;9.23;1.50;;;11.00;99.90;;;;;;5040870;28;20071;-75
2022/09/19 03:43:42;;;;;;;12.10;1.85;;;10.90;99.90;;;;;;5029709;28;20041;-75
2022/09/19 03:46:10;;;;;;;9.32;1.13;;;10.90;99.90;;;;;;5029842;28;20104;-75
2022/09/19 03:48:37;;;;;;;11.32;1.77;;;10.80;99.90;;;;;;5032189;28;20426;-75
2022/09/19 03:51:03;;;;;;;11.45;1.67;;;10.80;99.90;;;;;;5020842;28;20404;-75
2022/09/19 03:53:28;;;;;;;10.13;1.70;;;10.70;99.90;;;;;;5025741;28;20037;-75
2022/09/19 03:55:55;;;;;;;14.85;1.55;;;10.70;99.90;;;;;;5033058;28;20531;-75
2022/09/19 03:58:20;;;;;;;19.23;1.67;;;10.60;99.90;;;;;;5029885;28;20491;-76
2022/09/19 04:00:46;;;;;;;13.63;1.95;;;10.60;99.90;;;;;;5040587;28;20116;-75
2022/09/19 04:03:12;;;;;;;9.13;1.45;;;10.70;99.90;;;;;;5033116;28;20066;-75
2022/09/19 04:05:37;;;;;;;13.88;1.63;;;10.70;99.90;;;;;;5043357;28;20021;-75
2022/09/19 04:08:03;;;;;;;17.48;2.00;;;10.70;99.90;;;;;;5035393;28;20025;-75
2022/09/19 04:10:29;;;;;;;9.65;1.42;;;10.80;99.90;;;;;;5035714;28;20117;-74
2022/09/19 04:12:56;;;;;;;10.27;1.30;;;10.80;99.90;;;;;;5032725;28;20113;-74
2022/09/19 04:15:22;;;;;;;7.80;1.63;;;10.80;99.90;;;;;;5037483;28;20090;-74
2022/09/19 04:17:47;;;;;;;8.80;1.60;;;10.80;99.90;;;;;;5020048;28;20021;-75
2022/09/19 04:20:14;;;;;;;9.77;1.90;;;10.80;99.90;;;;;;5034464;28;20393;-75
2022/09/19 04:22:39;;;;;;;12.70;1.55;;;10.80;99.90;;;;;;5033100;28;20022;-74
2022/09/19 04:25:10;;;;;;;14.05;2.13;;;10.70;99.90;;;;;;5047337;28;20389;-75
2022/09/19 04:27:37;;;;;;;14.85;1.65;;;10.70;99.90;;;;;;5035483;28;20036;-75
2022/09/19 04:30:04;;;;;;;14.48;1.92;;;10.70;99.90;;;;;;5028018;28;20311;-75
2022/09/19 04:32:30;;;;;;;11.57;1.85;;;10.70;99.90;;;;;;5033578;28;20067;-75
2022/09/19 04:34:59;;;;;;;13.52;1.70;;;10.60;99.90;;;;;;5034834;28;20072;-75
2022/09/19 04:37:29;;;;;;;13.60;1.80;;;10.70;99.90;;;;;;5031581;28;20029;-75
2022/09/19 04:39:55;;;;;;;12.27;1.65;;;10.60;99.90;;;;;;5042458;28;20045;-75
2022/09/19 04:42:21;;;;;;;12.20;1.65;;;10.60;99.90;;;;;;5032248;28;20024;-75
2022/09/19 04:44:46;;;;;;;12.63;1.88;;;10.60;99.90;;;;;;5022602;28;20034;-75
2022/09/19 04:47:14;;;;;;;11.40;1.70;;;10.60;99.90;;;;;;5032871;28;20029;-75
2022/09/19 04:49:39;;;;;;;17.23;1.92;;;10.70;99.90;;;;;;5040504;28;20025;-75
2022/09/19 04:52:12;;;;;;;14.88;1.90;;;10.70;99.90;;;;;;5034718;28;20041;-76
2022/09/19 04:54:38;;;;;;;5.90;1.50;;;10.70;99.90;;;;;;5037999;28;20113;-76
2022/09/19 04:57:05;;;;;;;15.85;1.75;;;10.80;99.90;;;;;;5036159;28;20014;-76
2022/09/19 04:59:34;;;;;;;8.50;1.60;;;10.80;99.90;;;;;;5034295;28;20087;-76
2022/09/19 05:02:02;;;;;;;8.93;1.73;;;10.80;99.90;;;;;;5039853;28;20029;-77
2022/09/19 05:04:29;;;;;;;11.23;1.50;;;10.80;99.90;;;;;;5031040;28;20100;-76
2022/09/19 05:06:55;;;;;;;8.05;1.48;;;10.80;99.90;;;;;;5021764;28;20032;-76
2022/09/19 05:09:22;;;;;;;9.02;1.48;;;10.80;99.90;;;;;;5041783;28;20021;-76
2022/09/19 05:11:49;;;;;;;13.25;1.70;;;10.80;99.90;;;;;;5040259;28;20013;-76
2022/09/19 05:14:15;;;;;;;9.65;1.48;;;10.80;99.90;;;;;;5037569;28;20017;-77
2022/09/19 05:16:41;;;;;;;13.43;1.92;;;10.80;99.90;;;;;;5032239;28;20022;-76
2022/09/19 05:19:07;;;;;;;12.65;1.70;;;10.90;99.90;;;;;;5033248;28;20025;-77
2022/09/19 05:21:33;;;;;;;11.48;1.65;;;10.90;99.90;;;;;;5031758;28;20124;-77
2022/09/19 05:24:00;;;;;;;14.10;1.50;;;10.90;99.90;;;;;;5044696;28;20541;-78
2022/09/19 05:26:26;;;;;;;9.55;1.60;;;11.00;99.90;;;;;;5034700;28;20049;-76
2022/09/19 05:28:52;;;;;;;12.27;1.80;;;11.00;99.90;;;;;;5025252;28;20029;-77
2022/09/19 05:31:18;;;;;;;10.82;1.52;;;11.10;99.90;;;;;;5031252;28;20021;-78
2022/09/19 05:33:44;;;;;;;11.93;1.70;;;11.10;99.90;;;;;;5030151;28;20026;-78
2022/09/19 05:36:10;;;;;;;10.68;1.40;;;11.20;99.90;;;;;;5032331;28;20024;-78
2022/09/19 05:38:36;;;;;;;11.20;1.63;;;11.20;99.90;;;;;;5041805;28;20409;-77
2022/09/19 05:41:03;;;;;;;11.52;1.70;;;11.20;99.90;;;;;;5037427;28;20040;-78
2022/09/19 05:43:29;;;;;;;11.70;1.83;;;11.20;99.90;;;;;;5046550;28;20026;-76
2022/09/19 05:45:56;;;;;;;11.40;1.60;;;11.20;99.90;;;;;;5040759;28;20543;-78
2022/09/19 05:48:22;;;;;;;13.05;1.45;;;11.30;99.90;;;;;;5045559;28;20025;-79
2022/09/19 05:50:49;;;;;;;12.38;2.08;;;11.30;99.90;;;;;;5022734;28;20072;-79
2022/09/19 05:56:01;;;;;;;11.00;2.13;;;11.50;99.90;;;;;;5038525;28;20062;-79
2022/09/19 05:58:27;;;;;;;12.60;1.45;;;11.60;99.90;;;;;;5041500;28;20040;-80
2022/09/19 06:00:53;;;;;;;12.45;1.95;;;11.70;99.90;;;;;;5045757;28;20033;-80
2022/09/19 06:03:21;;;;;;;15.02;2.03;;;11.80;99.90;;;;;;5041307;28;20033;-79
2022/09/19 06:05:48;;;;;;;10.00;1.45;;;11.90;99.90;;;;;;5049061;28;20105;-80
2022/09/19 06:08:16;;;;;;;15.18;1.90;;;11.90;99.90;;;;;;5034022;28;20017;-80
2022/09/19 06:10:43;;;;;;;11.05;1.50;;;12.10;99.90;;;;;;5028238;28;20026;-80
2022/09/19 06:13:12;;;;;;;13.50;1.80;;;12.20;99.90;;;;;;5033314;28;20025;-80
2022/09/19 06:15:38;;;;;;;13.73;2.00;;;12.30;99.90;;;;;;5032719;28;20032;-79
2022/09/19 06:18:04;;;;;;;10.90;1.80;;;12.30;99.90;;;;;;5038670;28;20021;-80
2022/09/19 06:20:30;;;;;;;13.80;2.03;;;12.40;99.90;;;;;;5018322;28;20037;-80
2022/09/19 06:23:03;;;;;;;9.23;1.67;;;12.40;99.90;;;;;;5048061;28;20017;-80
2022/09/19 06:25:30;;;;;;;11.15;1.70;;;12.50;99.90;;;;;;5031571;28;20029;-80
2022/09/19 06:27:57;;;;;;;13.98;2.05;;;12.60;99.90;;;;;;5025146;28;20024;-80
2022/09/19 06:30:23;;;;;;;15.15;1.83;;;12.60;99.90;;;;;;5030052;28;20041;-80
2022/09/19 06:32:52;;;;;;;12.43;1.70;;;12.70;99.90;;;;;;5024554;28;20056;-78
2022/09/19 06:35:22;;;;;;;10.85;2.25;;;12.80;99.90;;;;;;5041980;28;20029;-79
2022/09/19 06:37:48;;;;;;;12.68;1.63;;;12.80;99.90;;;;;;5029578;28;20021;-79
2022/09/19 06:40:17;;;;;;;9.80;1.77;;;12.90;99.90;;;;;;5028692;28;20048;-78
2022/09/19 06:42:44;;;;;;;11.73;1.45;;;13.00;99.90;;;;;;5026462;28;20387;-79
2022/09/19 06:45:10;;;;;;;17.95;1.77;;;13.00;99.90;;;;;;5032024;28;20022;-79
2022/09/19 06:47:35;;;;;;;11.85;1.67;;;13.00;99.90;;;;;;5028152;28;20021;-79
2022/09/19 06:50:02;;;;;;;8.85;1.50;;;13.10;99.90;;;;;;5019472;28;20068;-79
2022/09/19 06:52:28;;;;;;;10.30;1.45;;;13.10;99.90;;;;;;5030473;28;20386;-79
2022/09/19 06:54:54;;;;;;;16.33;1.60;;;13.20;99.90;;;;;;5025613;28;20104;-79
2022/09/19 06:57:21;;;;;;;9.85;1.52;;;13.20;99.90;;;;;;5029277;28;20060;-79
2022/09/19 06:59:46;;;;;;;9.15;1.52;;;13.20;99.90;;;;;;5029554;28;20029;-79
2022/09/19 07:02:13;;;;;;;9.50;1.55;;;13.30;99.90;;;;;;5028262;28;20029;-79
2022/09/19 07:04:39;;;;;;;10.90;1.88;;;13.30;99.90;;;;;;5044758;28;20017;-79
2022/09/19 07:07:05;;;;;;;12.48;1.70;;;13.30;99.90;;;;;;5046328;28;20091;-79
2022/09/19 07:09:31;;;;;;;9.07;1.33;;;13.30;99.90;;;;;;5035360;28;20068;-79
2022/09/19 07:11:56;;;;;;;7.47;1.25;;;13.40;99.90;;;;;;5015336;28;20080;-80
2022/09/19 07:14:25;;;;;;;10.30;1.42;;;13.40;99.90;;;;;;5023601;28;20021;-79
2022/09/19 07:16:51;;;;;;;10.20;1.75;;;13.50;99.90;;;;;;5029473;28;20436;-79
2022/09/19 07:19:17;;;;;;;8.25;1.42;;;13.60;99.90;;;;;;5024206;28;20105;-79
2022/09/19 07:21:43;;;;;;;8.85;1.52;;;13.70;99.90;;;;;;5020927;28;20107;-79
2022/09/19 07:24:08;;;;;;;10.13;1.40;;;13.80;99.90;;;;;;5023868;28;20021;-78
2022/09/19 07:26:34;;;;;;;13.85;1.50;;;14.00;99.90;;;;;;5029008;28;20431;-79
2022/09/19 07:29:00;;;;;;;11.10;1.40;;;14.10;99.90;;;;;;5021812;28;20040;-79
2022/09/19 07:31:29;;;;;;;11.45;1.27;;;14.10;99.90;;;;;;5026292;28;20024;-80
2022/09/19 07:33:55;;;;;;;13.95;1.55;;;14.20;99.90;;;;;;5017839;28;20104;-79
2022/09/19 07:36:21;;;;;;;9.05;1.33;;;14.30;99.90;;;;;;5040823;28;20096;-79
2022/09/19 07:38:50;;;;;;;15.52;1.77;;;14.40;99.90;;;;;;5033101;28;20025;-79
2022/09/19 07:41:17;;;;;;;13.25;1.60;;;14.50;99.90;;;;;;5024179;28;20446;-80
2022/09/19 07:43:43;;;;;;;9.65;1.35;;;14.60;99.90;;;;;;5029464;28;20099;-79
2022/09/19 07:46:12;;;;;;;8.30;1.33;;;14.60;99.90;;;;;;5018741;28;20073;-79
2022/09/19 07:48:37;;;;;;;13.93;1.58;;;14.70;99.90;;;;;;5019699;28;20049;-80
2022/09/19 07:51:06;;;;;;;11.50;1.58;;;14.70;99.90;;;;;;5023866;28;20478;-79
2022/09/19 07:53:32;;;;;;;11.98;1.40;;;14.80;99.90;;;;;;5032739;28;20022;-79
2022/09/19 07:55:57;;;;;;;7.65;1.23;;;14.80;99.90;;;;;;5022124;28;20405;-79
2022/09/19 07:58:25;;;;;;;8.15;1.60;;;14.90;99.90;;;;;;5021502;28;20021;-79
2022/09/19 08:00:51;;;;;;;15.60;1.70;;;14.90;99.90;;;;;;5021517;28;20041;-79
2022/09/19 08:03:19;;;;;;;12.85;1.67;;;14.80;99.90;;;;;;5031424;28;20029;-79
2022/09/19 08:05:47;;;;;;;8.73;1.50;;;14.90;99.90;;;;;;5028802;28;20104;-79
2022/09/19 08:08:15;;;;;;;9.70;1.35;;;14.90;99.90;;;;;;5029136;28;20018;-79
2022/09/19 08:10:42;;;;;;;8.02;1.30;;;14.90;99.90;;;;;;5040145;28;20029;-79
2022/09/19 08:13:10;;;;;;;8.43;1.33;;;15.00;99.90;;;;;;5030795;28;20017;-79
2022/09/19 08:15:37;;;;;;;10.43;1.35;;;15.00;99.90;;;;;;5023041;28;20478;-78
2022/09/19 08:18:09;;;;;;;8.73;1.20;;;15.10;99.90;;;;;;5035702;28;20022;-79
2022/09/19 08:20:39;;;;;;;13.05;1.60;;;15.20;99.90;;;;;;5029108;28;20103;-79
2022/09/19 08:23:13;;;;;;;11.30;1.42;;;15.40;99.90;;;;;;5044092;28;20394;-78
2022/09/19 08:25:41;;;;;;;7.25;1.25;;;15.50;99.90;;;;;;5037847;28;20071;-78
2022/09/19 08:28:07;;;;;;;9.23;1.20;;;15.60;99.90;;;;;;5032122;28;20048;-79
2022/09/19 08:30:33;;;;;;;8.05;1.17;;;15.70;99.90;;;;;;5040108;28;20025;-79
2022/09/19 08:33:01;;;;;;;6.65;1.05;;;15.80;99.90;;;;;;5033139;28;20024;-78
2022/09/19 08:35:29;;;;;;;5.60;1.00;;;15.80;99.90;;;;;;5032127;28;20034;-79
2022/09/19 08:37:59;;;;;;;6.70;1.00;;;15.90;99.90;;;;;;5039123;28;20039;-79
2022/09/19 08:40:39;;;;;;;8.93;1.38;;;16.00;99.90;;;;;;5029423;28;20044;-78
2022/09/19 08:43:12;;;;;;;7.78;1.30;;;16.20;99.90;;;;;;5032181;28;20037;-79
2022/09/19 08:45:56;;;;;;;7.03;1.30;;;16.30;99.90;;;;;;5048353;28;20032;-79
2022/09/19 08:48:29;;;;;;;9.57;1.10;;;16.50;99.90;;;;;;5039114;28;20382;-79
2022/09/19 08:51:06;;;;;;;7.43;1.42;;;16.60;99.90;;;;;;5018860;28;20540;-79
2022/09/19 08:53:37;;;;;;;9.48;1.10;;;16.70;99.90;;;;;;5024996;28;20478;-79
2022/09/19 08:56:11;;;;;;;9.68;1.33;;;16.70;99.90;;;;;;5031605;28;20018;-79
2022/09/19 08:58:42;;;;;;;12.57;1.45;;;16.60;99.90;;;;;;5049916;28;20032;-79
2022/09/19 09:01:09;;;;;;;11.10;1.50;;;16.60;99.90;;;;;;5035968;28;20036;-79
2022/09/19 09:03:45;;;;;;;8.88;1.50;;;16.60;99.90;;;;;;5037042;28;20022;-79
2022/09/19 09:06:34;;;;;;;5.57;1.15;;;16.60;99.90;;;;;;5031689;28;20115;-77
2022/09/19 09:09:18;;;;;;;8.80;1.33;;;16.50;99.90;;;;;;5031629;28;20024;-77
2022/09/19 09:12:14;;;;;;;15.20;1.38;;;16.60;99.90;;;;;;5039813;28;20428;-79
2022/09/19 09:14:52;;;;;;;7.65;1.30;;;16.60;99.90;;;;;;5020103;28;20029;-79
2022/09/19 09:17:32;;;;;;;10.10;1.10;;;16.60;99.90;;;;;;5031559;28;20100;-77
2022/09/19 09:20:16;;;;;;;8.40;1.10;;;16.60;99.90;;;;;;5031166;28;20124;-77
2022/09/19 09:22:46;;;;;;;9.68;1.20;;;16.80;99.90;;;;;;5030956;28;20021;-78
2022/09/19 09:25:18;;;;;;;9.15;1.10;;;16.80;99.90;;;;;;5020096;28;20135;-79
2022/09/19 09:28:02;;;;;;;9.90;1.30;;;16.90;99.90;;;;;;5018853;28;20032;-79
2022/09/19 09:30:28;;;;;;;7.22;0.93;;;16.90;99.90;;;;;;5024116;28;20021;-79
2022/09/19 09:33:27;;;;;;;10.27;1.67;;;16.90;99.90;;;;;;5026764;28;20029;-79
2022/09/19 09:36:06;;;;;;;7.65;1.42;;;17.00;99.90;;;;;;5027475;28;20037;-79
2022/09/19 09:38:53;;;;;;;8.00;1.13;;;17.00;99.90;;;;;;5027000;28;20030;-79
2022/09/19 09:41:50;;;;;;;14.00;1.45;;;17.00;99.90;;;;;;5030891;28;20021;-77
2022/09/19 09:44:27;;;;;;;7.88;1.30;;;17.00;99.90;;;;;;5031269;28;20029;-79
2022/09/19 09:47:01;;;;;;;9.43;1.13;;;17.00;99.90;;;;;;5030724;28;20425;-77
2022/09/19 09:49:29;;;;;;;7.30;1.17;;;17.00;99.90;;;;;;5031138;28;20037;-77
2022/09/19 09:52:14;;;;;;;6.65;1.20;;;17.00;99.90;;;;;;5030839;28;20455;-77
2022/09/19 09:57:46;;;;;;;7.57;1.50;;;17.10;99.90;;;;;;5028720;28;20033;-76
2022/09/19 10:03:38;;;;;;;5.65;1.00;;;17.20;99.90;;;;;;5030558;28;20027;-76
2022/09/19 10:06:15;;;;;;;10.85;1.25;;;17.20;99.90;;;;;;5026329;28;20014;-78
2022/09/19 10:08:56;;;;;;;5.65;1.13;;;17.20;99.90;;;;;;5030587;28;20053;-76
2022/09/19 10:11:42;;;;;;;5.88;0.93;;;17.30;99.90;;;;;;5030528;28;20090;-77
2022/09/19 10:14:18;;;;;;;5.95;1.10;;;17.40;99.90;;;;;;5031798;28;20112;-76
2022/09/19 10:16:46;;;;;;;7.80;1.13;;;17.60;99.90;;;;;;5030687;28;20038;-76
2022/09/19 10:19:27;;;;;;;7.10;1.10;;;17.70;99.70;;;;;;5030156;28;20493;-78
2022/09/19 10:22:05;;;;;;;7.82;1.38;;;17.90;99.40;;;;;;5030662;28;20037;-78
2022/09/19 10:24:55;;;;;;;9.65;1.40;;;18.10;98.90;;;;;;5036432;28;20025;-76
2022/09/19 10:27:38;;;;;;;6.60;1.30;;;18.20;98.30;;;;;;5029665;28;20482;-76
2022/09/19 10:30:36;;;;;;;5.03;1.15;;;18.30;98.60;;;;;;5019326;28;20033;-76
2022/09/19 10:33:23;;;;;;;8.27;1.10;;;18.40;97.60;;;;;;5029582;28;20120;-76
2022/09/19 10:35:54;;;;;;;8.15;1.02;;;18.50;96.70;;;;;;5039414;28;20089;-76
2022/09/19 10:38:21;;;;;;;5.55;1.25;;;18.50;96.40;;;;;;5035093;28;20469;-76
2022/09/19 10:40:58;;;;;;;6.00;1.13;;;18.60;96.20;;;;;;5032270;28;20052;-76
2022/09/19 10:43:31;;;;;;;11.38;1.38;;;18.60;95.60;;;;;;5029602;28;20021;-76
2022/09/19 10:46:07;;;;;;;6.38;1.10;;;18.70;94.60;;;;;;5030004;28;20060;-76
2022/09/19 10:48:36;;;;;;;7.07;1.25;;;18.60;94.00;;;;;;5031610;28;20421;-76
2022/09/19 10:51:08;;;;;;;7.10;1.13;;;18.60;94.20;;;;;;5040816;28;20444;-76
2022/09/19 10:53:38;;;;;;;5.70;1.10;;;18.60;93.80;;;;;;5032227;28;20037;-75
2022/09/19 10:56:22;;;;;;;8.65;1.20;;;18.50;93.30;;;;;;5031388;28;20025;-74
2022/09/19 10:58:49;;;;;;;7.95;1.10;;;18.60;93.40;;;;;;5040381;28;20032;-75
2022/09/19 11:01:22;;;;;;;7.93;1.10;;;18.60;93.60;;;;;;5036587;28;20037;-76
2022/09/19 11:04:11;;;;;;;6.35;0.90;;;18.70;92.60;;;;;;5016807;28;20490;-75
2022/09/19 11:06:59;;;;;;;8.10;1.15;;;18.80;93.20;;;;;;5026079;28;20056;-76
2022/09/19 11:09:33;;;;;;;6.20;1.27;;;18.80;92.50;;;;;;5035564;28;20532;-76
2022/09/19 11:12:15;;;;;;;5.95;1.10;;;18.80;93.60;;;;;;5041270;28;20492;-76
2022/09/19 11:14:42;;;;;;;6.88;1.23;;;19.00;93.10;;;;;;5034371;28;20484;-76
2022/09/19 11:17:51;;;;;;;10.48;1.27;;;19.10;93.30;;;;;;5039284;28;20021;-76
2022/09/19 11:20:52;;;;;;;7.03;1.10;;;19.30;93.30;;;;;;5027990;28;20030;-76
2022/09/19 11:23:33;;;;;;;8.80;1.35;;;19.20;92.70;;;;;;5028229;28;20437;-77
2022/09/19 11:26:03;;;;;;;7.07;0.98;;;19.20;93.00;;;;;;5027674;28;20025;-76
2022/09/19 11:28:47;;;;;;;8.20;1.10;;;19.10;92.60;;;;;;5026642;28;20167;-76
2022/09/19 11:31:45;;;;;;;5.82;1.15;;;19.10;92.50;;;;;;5034956;28;20018;-76
2022/09/19 11:34:36;;;;;;;6.82;1.00;;;18.90;92.60;;;;;;5033505;28;20036;-76
2022/09/19 11:37:25;;;;;;;9.80;1.20;;;18.80;93.20;;;;;;5047257;28;20021;-76
2022/09/19 11:40:04;;;;;;;6.88;1.17;;;18.60;93.10;;;;;;5033813;28;20033;-76
2022/09/19 11:42:29;;;;;;;10.52;1.50;;;18.40;93.90;;;;;;5045094;28;20032;-77
2022/09/19 11:45:12;;;;;;;6.57;1.13;;;18.20;94.00;;;;;;5047705;28;20048;-76
2022/09/19 11:47:53;;;;;;;10.45;1.40;;;18.10;94.80;;;;;;5038277;28;20075;-76
2022/09/19 11:50:43;;;;;;;8.15;1.30;;;18.00;95.00;;;;;;5028336;28;20050;-76
2022/09/19 11:53:48;;;;;;;7.30;1.20;;;17.90;95.50;;;;;;5026592;28;20029;-76
2022/09/19 11:56:16;;;;;;;7.97;1.38;;;17.80;95.80;;;;;;5048586;28;20019;-76
2022/09/19 11:58:55;;;;;;;7.20;0.98;;;17.80;95.90;;;;;;5033981;28;20131;-76
2022/09/19 12:01:47;;;;;;;8.70;1.25;;;17.90;96.80;;;;;;5042149;28;20047;-76
2022/09/19 12:04:37;;;;;;;5.88;1.00;;;18.00;96.30;;;;;;5012956;28;20602;-76
2022/09/19 12:07:25;;;;;;;6.90;1.15;;;18.10;95.40;;;;;;5011666;28;20044;-76
2022/09/19 12:10:03;;;;;;;8.75;1.00;;;18.10;95.00;;;;;;5019075;28;20153;-76
2022/09/19 12:12:31;;;;;;;7.53;1.30;;;17.90;95.70;;;;;;5038302;28;20022;-76
2022/09/19 12:15:22;;;;;;;10.65;1.42;;;17.70;96.90;;;;;;5036597;28;20029;-76
2022/09/19 12:17:59;;;;;;;7.22;1.42;;;17.60;98.70;;;;;;5027064;28;20049;-76
2022/09/19 12:20:49;;;;;;;11.60;1.88;;;17.50;99.90;;;;;;5013334;28;20057;-76
2022/09/19 12:26:21;;;;;;;4.82;1.10;;;17.20;99.90;;;;;;5032798;28;20032;-76
2022/09/19 12:28:58;;;;;;;4.93;0.80;;;17.10;99.90;;;;;;5020929;28;20033;-76
2022/09/19 12:31:29;;;;;;;5.57;0.93;;;17.00;99.90;;;;;;5026591;28;20065;-76
2022/09/19 12:34:07;;;;;;;4.78;0.98;;;16.90;99.90;;;;;;5038682;28;20025;-76
2022/09/19 12:37:15;;;;;;;5.50;1.30;;;16.70;99.90;;;;;;5032691;28;20167;-76
2022/09/19 12:40:12;;;;;;;8.07;1.23;;;16.60;99.90;;;;;;5029562;28;20041;-76
2022/09/19 12:43:09;;;;;;;7.07;1.23;;;16.50;99.90;;;;;;5031909;28;20024;-76
2022/09/19 12:45:41;;;;;;;6.90;1.10;;;16.40;99.90;;;;;;5026112;28;20045;-76
2022/09/19 12:48:14;;;;;;;7.50;1.73;;;16.30;99.90;;;;;;5031596;28;20120;-76
2022/09/19 12:50:46;;;;;;;6.53;1.20;;;16.30;99.90;;;;;;5032317;28;20532;-76
2022/09/19 12:53:38;;;;;;;6.75;1.15;;;16.30;99.90;;;;;;5031720;28;20057;-76
2022/09/19 12:56:26;;;;;;;7.95;1.00;;;16.20;99.90;;;;;;5022041;28;20036;-78
2022/09/19 12:58:58;;;;;;;6.97;1.02;;;16.10;99.90;;;;;;5030785;28;20037;-77
2022/09/19 13:01:52;;;;;;;7.32;1.10;;;16.00;99.90;;;;;;5032213;28;20374;-77
2022/09/19 13:04:29;;;;;;;8.07;1.15;;;15.90;99.90;;;;;;5019172;28;20022;-77
2022/09/19 13:07:09;;;;;;;8.05;1.00;;;15.80;99.90;;;;;;5031360;28;20083;-77
2022/09/19 13:10:01;;;;;;;6.80;0.90;;;15.90;99.90;;;;;;5031801;28;20377;-77
2022/09/19 13:13:04;;;;;;;5.05;0.80;;;16.00;99.90;;;;;;5031083;28;20489;-76
2022/09/19 13:15:38;;;;;;;6.30;1.30;;;16.20;99.90;;;;;;5019655;28;20034;-77
2022/09/19 13:23:43;;;;;;;7.50;1.30;;;16.60;99.90;;;;;;5046599;28;20439;-77
2022/09/19 13:26:17;;;;;;;6.57;1.02;;;16.70;99.90;;;;;;5041420;28;20104;-77
2022/09/19 13:28:54;;;;;;;5.90;1.40;;;16.90;99.90;;;;;;5045552;28;20019;-77
2022/09/19 13:31:31;;;;;;;8.38;1.20;;;17.00;99.90;;;;;;5039347;28;20338;-77
2022/09/19 13:33:58;;;;;;;4.55;0.82;;;17.20;99.90;;;;;;5047839;28;20022;-77